Time;durP1;ratioP1;P1;durP2;ratioP2;P2;SDS_P1;SDS_P2;PMS_P1;PMS_P2;Temp;Humidity;BMP_temperature;BMP_pressure;BME280_temperature;BME280_humidity;BME280_pressure;Samples;Min_cycle;Max_cycle;Signal;HPM_P1;HPM_P2
2023/07/10 00:01:33;;;;;;;76.50;71.40;;;22.70;99.90;;;;;;5053631;28;20465;-65
2023/07/10 00:03:59;;;;;;;59.70;55.73;;;22.60;99.90;;;;;;5045225;28;20428;-66
2023/07/10 00:06:28;;;;;;;0.30;0.30;;;22.50;99.90;;;;;;5051292;28;20589;-65
2023/07/10 00:08:56;;;;;;;1.00;1.00;;;22.50;99.90;;;;;;5050794;28;20439;-65
2023/07/10 00:11:27;;;;;;;12.50;11.80;;;22.40;99.90;;;;;;5051721;28;20804;-66
2023/07/10 00:13:55;;;;;;;9.48;8.85;;;22.30;99.90;;;;;;5049291;28;21119;-65
2023/07/10 00:16:23;;;;;;;87.65;82.00;;;22.30;99.90;;;;;;5055237;28;20427;-65
2023/07/10 00:18:50;;;;;;;10.35;9.57;;;22.20;99.90;;;;;;5044848;28;21034;-64
2023/07/10 00:21:17;;;;;;;0.20;0.20;;;22.20;99.90;;;;;;5055858;28;20429;-64
2023/07/10 00:23:47;;;;;;;0.80;0.80;;;22.10;99.90;;;;;;5050675;28;20419;-64
2023/07/10 00:26:23;;;;;;;11.77;10.80;;;22.00;99.90;;;;;;5057925;28;21817;-63
2023/07/10 00:28:54;;;;;;;0.90;0.57;;;21.90;1.00;;;;;;5059613;28;20473;-63
2023/07/10 00:31:21;;;;;;;1.63;0.70;;;21.80;1.00;;;;;;5040657;28;20444;-63
2023/07/10 00:33:48;;;;;;;1.00;0.52;;;21.70;1.00;;;;;;5060872;28;20772;-64
2023/07/10 00:36:33;;;;;;;2.10;0.60;;;21.70;1.00;;;;;;5062546;28;20431;-64
2023/07/10 00:39:14;;;;;;;0.32;0.32;;;21.70;1.00;;;;;;5059473;28;20433;-64
2023/07/10 00:41:42;;;;;;;0.40;0.40;;;21.60;1.00;;;;;;5057101;28;20439;-64
2023/07/10 00:44:10;;;;;;;0.52;0.52;;;21.60;1.00;;;;;;5058202;28;20436;-64
2023/07/10 00:46:56;;;;;;;0.60;0.60;;;21.60;1.00;;;;;;5060136;28;20893;-64
2023/07/10 00:49:40;;;;;;;0.75;0.75;;;21.60;1.00;;;;;;5060346;28;20447;-64
2023/07/10 00:52:22;;;;;;;1.70;0.80;;;21.50;1.00;;;;;;5026525;28;20471;-64
2023/07/10 00:54:52;;;;;;;0.47;0.47;;;21.50;1.00;;;;;;5058669;28;22131;-64
2023/07/10 00:57:34;;;;;;;0.28;0.28;;;21.50;1.00;;;;;;5062088;28;20848;-64
2023/07/10 01:00:16;;;;;;;0.50;0.50;;;21.50;1.00;;;;;;5057209;28;20510;-64
2023/07/10 01:02:46;;;;;;;0.47;0.45;;;21.50;1.00;;;;;;5057305;28;20442;-64
2023/07/10 01:05:17;;;;;;;1.30;0.50;;;21.40;1.00;;;;;;5060765;28;20435;-64
2023/07/10 01:07:56;;;;;;;0.73;0.73;;;21.30;1.00;;;;;;5059335;28;20423;-64
2023/07/10 01:10:22;;;;;;;0.28;0.28;;;21.20;99.90;;;;;;5061647;28;20520;-64
2023/07/10 01:12:49;;;;;;;0.40;0.40;;;21.10;99.90;;;;;;5057134;28;20441;-64
2023/07/10 01:15:17;;;;;;;0.82;0.82;;;21.00;99.90;;;;;;5059283;28;20514;-64
2023/07/10 01:17:46;;;;;;;327.70;301.73;;;20.90;99.90;;;;;;5056157;28;20509;-64
2023/07/10 01:20:34;;;;;;;452.80;414.05;;;20.80;1.00;;;;;;5059375;28;20427;-64
2023/07/10 01:23:03;;;;;;;651.95;584.38;;;20.70;1.00;;;;;;5042888;28;21895;-64
2023/07/10 01:25:49;;;;;;;24.70;21.80;;;20.60;1.00;;;;;;5059650;28;20481;-64
2023/07/10 01:28:19;;;;;;;0.20;0.20;;;20.50;38.50;;;;;;5057194;28;21394;-64
2023/07/10 01:30:56;;;;;;;0.40;0.40;;;20.40;99.90;;;;;;5061639;28;20438;-64
2023/07/10 01:33:27;;;;;;;0.32;0.32;;;20.40;99.90;;;;;;5061539;28;20432;-64
2023/07/10 01:35:57;;;;;;;0.45;0.45;;;20.30;99.90;;;;;;5060007;28;20484;-64
2023/07/10 01:38:30;;;;;;;1.33;0.88;;;20.40;1.00;;;;;;5057479;28;20428;-64
2023/07/10 01:41:00;;;;;;;0.75;0.70;;;20.40;1.00;;;;;;5058755;28;20436;-64
2023/07/10 01:43:27;;;;;;;0.60;0.60;;;20.40;1.00;;;;;;5057507;28;20907;-64
2023/07/10 01:45:54;;;;;;;0.50;0.50;;;20.50;1.00;;;;;;5057893;28;20941;-65
2023/07/10 01:48:26;;;;;;;0.55;0.55;;;20.50;1.00;;;;;;5060628;28;20522;-64
2023/07/10 01:50:53;;;;;;;1.20;0.75;;;20.60;1.00;;;;;;5059842;28;20469;-64
2023/07/10 01:53:20;;;;;;;0.20;0.20;;;20.60;99.90;;;;;;5058995;28;20452;-64
2023/07/10 01:55:47;;;;;;;0.47;0.47;;;20.60;99.90;;;;;;5054932;28;20436;-63
2023/07/10 01:58:14;;;;;;;0.80;0.80;;;20.60;99.90;;;;;;5058593;28;20465;-64
2023/07/10 02:00:42;;;;;;;317.50;288.77;;;20.60;99.90;;;;;;5058212;28;20463;-63
2023/07/10 02:03:09;;;;;;;0.80;0.80;;;20.60;1.00;;;;;;5041448;28;20439;-64
2023/07/10 02:05:38;;;;;;;56.72;51.72;;;20.70;99.90;;;;;;5058038;28;20435;-64
2023/07/10 02:08:05;;;;;;;40.75;37.90;;;20.70;99.90;;;;;;5054222;28;20423;-64
2023/07/10 02:10:32;;;;;;;162.77;147.75;;;20.70;99.90;;;;;;5056180;28;20431;-64
2023/07/10 02:13:12;;;;;;;173.90;157.40;;;20.70;99.90;;;;;;5057541;28;20481;-64
2023/07/10 02:15:39;;;;;;;0.70;0.55;;;20.70;99.90;;;;;;5036625;28;20427;-64
2023/07/10 02:18:09;;;;;;;0.55;0.55;;;20.60;99.90;;;;;;5056186;28;20492;-64
2023/07/10 02:20:41;;;;;;;0.40;0.40;;;20.50;99.90;;;;;;5058620;28;20423;-64
2023/07/10 02:23:11;;;;;;;0.50;0.50;;;20.40;1.00;;;;;;5061137;28;20925;-64
2023/07/10 02:25:38;;;;;;;0.40;0.40;;;20.30;1.00;;;;;;5054067;28;20513;-64
2023/07/10 02:28:06;;;;;;;0.57;0.57;;;20.20;50.80;;;;;;5059753;28;20431;-64
2023/07/10 02:30:35;;;;;;;0.80;0.80;;;20.20;99.90;;;;;;5058653;28;21367;-64
2023/07/10 02:33:04;;;;;;;0.73;0.73;;;20.00;99.90;;;;;;5057054;28;20434;-64
2023/07/10 02:35:31;;;;;;;0.30;0.30;;;20.00;1.00;;;;;;5059111;28;20429;-64
2023/07/10 02:37:58;;;;;;;0.50;0.45;;;20.00;1.00;;;;;;5057119;28;20885;-64
2023/07/10 02:40:25;;;;;;;0.50;0.50;;;20.00;1.00;;;;;;5058036;28;20450;-64
2023/07/10 02:42:52;;;;;;;0.40;0.40;;;19.90;1.00;;;;;;5061568;28;20561;-64
2023/07/10 02:45:19;;;;;;;0.90;0.90;;;19.90;50.90;;;;;;5057929;28;20521;-64
2023/07/10 02:47:45;;;;;;;0.70;0.70;;;19.90;98.30;;;;;;5042546;28;20453;-64
2023/07/10 02:50:12;;;;;;;1.00;0.47;;;19.80;99.90;;;;;;5058580;28;20465;-64
2023/07/10 02:52:39;;;;;;;1.10;1.08;;;19.80;99.90;;;;;;5058196;28;20431;-64
2023/07/10 02:55:06;;;;;;;0.70;0.70;;;19.90;1.00;;;;;;5057975;28;20447;-64
2023/07/10 02:57:33;;;;;;;1.60;0.30;;;20.00;1.00;;;;;;5058102;28;20427;-64
2023/07/10 03:00:00;;;;;;;143.50;131.63;;;20.00;99.90;;;;;;5035892;28;20428;-64
2023/07/10 03:02:27;;;;;;;0.75;0.75;;;20.00;99.90;;;;;;5060137;28;20475;-64
2023/07/10 03:04:57;;;;;;;0.40;0.40;;;20.00;99.90;;;;;;5060382;28;20433;-64
2023/07/10 03:07:24;;;;;;;0.60;0.60;;;20.00;99.90;;;;;;5059295;28;20926;-64
2023/07/10 03:09:50;;;;;;;0.65;0.65;;;20.10;1.00;;;;;;5057641;28;20461;-65
2023/07/10 03:12:21;;;;;;;0.75;0.65;;;20.10;1.00;;;;;;5041900;28;20467;-64
2023/07/10 03:14:49;;;;;;;1.42;1.33;;;20.10;1.00;;;;;;5060151;28;20801;-64
2023/07/10 03:17:17;;;;;;;2.60;1.10;;;20.20;1.00;;;;;;5057969;28;20502;-64
2023/07/10 03:19:44;;;;;;;0.95;0.95;;;20.30;99.90;;;;;;5036904;28;20509;-64
2023/07/10 03:22:19;;;;;;;1.55;1.45;;;20.30;99.90;;;;;;5053876;28;21026;-64
2023/07/10 03:24:46;;;;;;;0.60;0.60;;;20.20;99.90;;;;;;5057852;28;20456;-64
2023/07/10 03:27:12;;;;;;;1.25;0.65;;;20.10;1.00;;;;;;5056683;28;20507;-64
2023/07/10 03:29:39;;;;;;;0.82;0.82;;;20.00;1.00;;;;;;5057356;28;20435;-64
2023/07/10 03:32:07;;;;;;;0.65;0.65;;;20.00;58.80;;;;;;5038347;28;20437;-64
2023/07/10 03:34:34;;;;;;;3.05;0.90;;;19.80;99.90;;;;;;5056145;28;20446;-63
2023/07/10 03:37:05;;;;;;;1.17;0.80;;;19.60;99.90;;;;;;5058482;28;20456;-64
2023/07/10 03:39:32;;;;;;;0.70;0.70;;;19.60;70.70;;;;;;5056559;28;20427;-64
2023/07/10 03:41:59;;;;;;;1.10;0.50;;;19.60;99.90;;;;;;5056613;28;20871;-64
2023/07/10 03:44:26;;;;;;;1.00;0.90;;;19.70;99.90;;;;;;5054747;28;20429;-64
2023/07/10 03:46:52;;;;;;;0.38;0.38;;;19.70;99.90;;;;;;5055041;28;20476;-64
2023/07/10 03:49:19;;;;;;;1.00;1.00;;;19.70;99.90;;;;;;5058636;28;20515;-64
2023/07/10 03:51:46;;;;;;;2.20;0.90;;;19.60;99.90;;;;;;5058489;28;20426;-64
2023/07/10 03:54:14;;;;;;;2.08;0.50;;;19.50;99.90;;;;;;5055533;28;20948;-64
2023/07/10 03:56:41;;;;;;;0.43;0.43;;;19.50;99.90;;;;;;5041800;28;20431;-64
2023/07/10 03:59:08;;;;;;;755.05;687.60;;;19.50;1.00;;;;;;5060390;28;20440;-64
2023/07/10 04:01:36;;;;;;;740.38;671.03;;;19.50;1.00;;;;;;5052514;28;23261;-64
2023/07/10 04:04:03;;;;;;;878.93;781.53;;;19.50;1.00;;;;;;5050172;28;20470;-64
2023/07/10 04:06:32;;;;;;;907.92;822.75;;;19.50;1.00;;;;;;5054490;28;20462;-64
2023/07/10 04:09:01;;;;;;;14.00;12.85;;;19.50;1.00;;;;;;5055608;28;20453;-64
2023/07/10 04:11:29;;;;;;;52.20;46.93;;;19.60;1.00;;;;;;5053705;28;20917;-64
2023/07/10 04:13:55;;;;;;;57.03;51.92;;;19.60;1.00;;;;;;5053509;28;20434;-64
2023/07/10 04:16:25;;;;;;;0.52;0.47;;;19.70;1.00;;;;;;5054742;28;20424;-64
2023/07/10 04:18:54;;;;;;;0.85;0.85;;;19.70;1.00;;;;;;5036173;28;20466;-64
2023/07/10 04:21:23;;;;;;;0.67;0.67;;;19.80;52.10;;;;;;5055863;28;20449;-64
2023/07/10 04:23:54;;;;;;;2.08;1.98;;;19.90;99.90;;;;;;5056417;28;20435;-64
2023/07/10 04:26:32;;;;;;;3.35;3.05;;;20.00;99.90;;;;;;5045395;28;21060;-64
2023/07/10 04:29:01;;;;;;;200.20;179.18;;;20.20;99.90;;;;;;5055006;28;20506;-64
2023/07/10 04:31:28;;;;;;;531.63;477.55;;;20.30;99.90;;;;;;5055766;28;20435;-64
2023/07/10 04:33:57;;;;;;;2.50;1.67;;;20.40;99.90;;;;;;5052957;28;22841;-64
2023/07/10 04:36:24;;;;;;;738.60;667.00;;;20.50;99.90;;;;;;5051008;28;20448;-64
2023/07/10 04:38:51;;;;;;;5.22;4.85;;;20.60;99.90;;;;;;5057288;28;20431;-64
2023/07/10 04:41:21;;;;;;;3.80;2.17;;;20.80;99.90;;;;;;5041204;28;20431;-64
2023/07/10 04:43:48;;;;;;;1.20;1.20;;;20.90;91.10;;;;;;5053431;28;20425;-64
2023/07/10 04:46:17;;;;;;;2.40;1.35;;;21.10;1.00;;;;;;5049105;28;20916;-65
2023/07/10 04:48:46;;;;;;;1.73;1.63;;;21.30;1.00;;;;;;5050837;28;20810;-64
2023/07/10 04:51:18;;;;;;;2.15;2.03;;;21.70;1.00;;;;;;5053685;28;20431;-64
2023/07/10 04:53:45;;;;;;;2.60;1.80;;;22.00;65.60;;;;;;5052867;28;20912;-64
2023/07/10 04:56:15;;;;;;;2.58;2.38;;;22.40;1.00;;;;;;5053104;28;20921;-64
2023/07/10 04:58:48;;;;;;;4.20;1.98;;;22.70;91.40;;;;;;5055986;28;20477;-64
2023/07/10 05:01:16;;;;;;;2.92;2.65;;;23.10;1.00;;;;;;5055004;28;20436;-64
2023/07/10 05:03:43;;;;;;;2.67;2.47;;;23.50;99.90;;;;;;5059827;28;20449;-64
2023/07/10 05:06:10;;;;;;;3.20;2.45;;;23.90;99.90;;;;;;5054708;28;20520;-64
2023/07/10 05:08:37;;;;;;;2.72;2.53;;;24.30;99.90;;;;;;5058349;28;20770;-64
2023/07/10 05:11:04;;;;;;;2.70;2.50;;;24.70;1.00;;;;;;5058251;28;20554;-64
2023/07/10 05:13:31;;;;;;;3.10;2.70;;;24.90;1.00;;;;;;5056324;28;20499;-64
2023/07/10 05:15:58;;;;;;;4.75;2.35;;;25.10;1.00;;;;;;5055279;28;20789;-64
2023/07/10 05:18:26;;;;;;;2.20;2.10;;;25.30;99.90;;;;;;5052815;28;21164;-64
2023/07/10 05:20:53;;;;;;;2.05;1.95;;;25.40;99.90;;;;;;5051243;28;20456;-65
2023/07/10 05:23:20;;;;;;;1.90;1.70;;;25.30;99.90;;;;;;5050004;28;20435;-64
2023/07/10 05:25:57;;;;;;;3.97;2.97;;;25.20;99.90;;;;;;5003335;28;20489;-65
2023/07/10 05:28:27;;;;;;;3.30;2.60;;;25.00;99.90;;;;;;5016445;28;20568;-65
2023/07/10 05:30:57;;;;;;;4.47;2.47;;;24.80;99.90;;;;;;5010599;28;20998;-64
2023/07/10 05:33:24;;;;;;;3.00;2.67;;;24.90;99.90;;;;;;5009433;28;20530;-65
2023/07/10 05:35:54;;;;;;;4.25;2.88;;;25.00;99.90;;;;;;5011756;28;20438;-65
2023/07/10 05:38:23;;;;;;;3.40;2.63;;;25.10;99.90;;;;;;5009286;28;20434;-64
2023/07/10 05:40:50;;;;;;;2.20;2.00;;;25.00;99.90;;;;;;4998119;28;20574;-64
2023/07/10 05:43:17;;;;;;;2.53;2.20;;;25.20;99.90;;;;;;5007805;28;20483;-65
2023/07/10 05:45:44;;;;;;;2.13;1.90;;;25.40;99.90;;;;;;5006464;28;20462;-64
2023/07/10 05:48:12;;;;;;;1.95;1.85;;;25.40;99.90;;;;;;5014111;28;20430;-64
2023/07/10 05:50:45;;;;;;;2.00;1.80;;;25.40;99.90;;;;;;5015434;28;20470;-66
2023/07/10 05:53:14;;;;;;;2.80;2.60;;;25.70;99.90;;;;;;5005789;28;20426;-64
2023/07/10 05:55:45;;;;;;;3.17;2.42;;;25.90;99.90;;;;;;5008220;28;22317;-66
2023/07/10 05:58:14;;;;;;;5.78;2.60;;;26.00;99.90;;;;;;4994661;28;20493;-64
2023/07/10 06:00:43;;;;;;;4.53;3.35;;;26.20;99.90;;;;;;5017469;28;20430;-65
2023/07/10 06:03:10;;;;;;;3.63;2.53;;;26.40;99.90;;;;;;5009744;28;20785;-64
2023/07/10 06:05:37;;;;;;;2.50;2.30;;;26.80;99.90;;;;;;4994045;28;20438;-64
2023/07/10 06:08:04;;;;;;;3.75;1.38;;;26.90;99.90;;;;;;5016166;28;20427;-64
2023/07/10 06:10:33;;;;;;;3.42;2.65;;;27.10;99.90;;;;;;5012352;28;20871;-64
2023/07/10 06:13:00;;;;;;;2.95;2.15;;;27.20;99.90;;;;;;5014522;28;20480;-64
2023/07/10 06:15:27;;;;;;;2.40;2.28;;;27.40;99.90;;;;;;5011616;28;20465;-64
2023/07/10 06:17:55;;;;;;;2.80;2.60;;;27.50;99.90;;;;;;4995366;28;20435;-64
2023/07/10 06:20:21;;;;;;;3.60;3.17;;;27.40;99.90;;;;;;5014195;28;20442;-65
2023/07/10 06:22:50;;;;;;;3.20;1.80;;;27.40;99.90;;;;;;5015661;28;20434;-64
2023/07/10 06:25:16;;;;;;;3.35;2.70;;;27.10;99.90;;;;;;5016760;28;20445;-64
2023/07/10 06:27:43;;;;;;;2.90;2.60;;;27.20;99.90;;;;;;5013484;28;21024;-63
2023/07/10 06:30:11;;;;;;;5.70;3.45;;;27.30;99.90;;;;;;5010054;28;20449;-64
2023/07/10 06:32:40;;;;;;;3.17;2.63;;;27.50;99.90;;;;;;5007795;28;21040;-64
2023/07/10 06:35:12;;;;;;;4.18;2.60;;;28.00;99.90;;;;;;5003495;28;20434;-64
2023/07/10 06:37:40;;;;;;;4.07;3.00;;;28.30;99.90;;;;;;5014789;28;20434;-64
2023/07/10 06:40:08;;;;;;;4.25;2.92;;;28.60;99.90;;;;;;5016762;28;20549;-69
2023/07/10 06:42:36;;;;;;;4.15;3.60;;;28.80;99.90;;;;;;5006652;28;20532;-65
2023/07/10 06:45:05;;;;;;;8.57;4.63;;;28.90;99.90;;;;;;5013466;28;20947;-66
2023/07/10 06:47:33;;;;;;;8.90;4.40;;;28.70;99.90;;;;;;5015453;28;20438;-66
2023/07/10 06:50:00;;;;;;;4.18;3.72;;;28.70;99.90;;;;;;5014935;28;21805;-65
2023/07/10 06:52:31;;;;;;;8.18;4.22;;;28.70;99.90;;;;;;5017584;28;20484;-65
2023/07/10 06:54:59;;;;;;;5.75;3.80;;;28.60;99.90;;;;;;5012646;28;20526;-65
2023/07/10 06:57:26;;;;;;;8.18;4.20;;;28.80;99.90;;;;;;5013235;28;20446;-65
2023/07/10 06:59:52;;;;;;;8.68;4.75;;;29.00;99.90;;;;;;5010656;28;21171;-66
2023/07/10 07:02:19;;;;;;;6.10;5.13;;;29.10;99.90;;;;;;5010469;28;20466;-65
2023/07/10 07:04:46;;;;;;;6.45;4.13;;;29.30;99.90;;;;;;5016133;28;20440;-65
2023/07/10 07:07:13;;;;;;;7.93;4.60;;;29.20;99.90;;;;;;5015087;28;20469;-65
2023/07/10 07:09:39;;;;;;;4.63;3.78;;;29.20;99.90;;;;;;5014384;28;20618;-65
2023/07/10 07:12:08;;;;;;;5.63;4.00;;;29.30;99.90;;;;;;5013747;28;20521;-68
2023/07/10 07:14:34;;;;;;;7.00;3.95;;;29.40;99.90;;;;;;5015253;28;20628;-66
2023/07/10 07:17:01;;;;;;;7.32;4.18;;;29.50;99.90;;;;;;5013997;28;20436;-66
2023/07/10 07:19:28;;;;;;;7.07;4.93;;;29.80;99.90;;;;;;5001164;28;20445;-65
2023/07/10 07:21:55;;;;;;;4.27;3.83;;;29.90;99.90;;;;;;5012795;28;21071;-65
2023/07/10 07:24:22;;;;;;;6.28;4.15;;;30.40;99.90;;;;;;5003021;28;20455;-66
2023/07/10 07:26:49;;;;;;;3.95;3.55;;;30.80;99.90;;;;;;5016564;28;20430;-66
2023/07/10 07:29:18;;;;;;;12.23;4.50;;;31.30;99.90;;;;;;5015627;28;20436;-67
2023/07/10 07:31:45;;;;;;;6.67;4.00;;;31.20;99.90;;;;;;5015152;28;20498;-65
2023/07/10 07:34:11;;;;;;;4.50;4.00;;;30.80;99.90;;;;;;4998984;28;20834;-65
2023/07/10 07:36:40;;;;;;;4.28;3.88;;;30.80;99.90;;;;;;5013459;28;21860;-65
2023/07/10 07:39:08;;;;;;;6.05;4.43;;;31.30;99.90;;;;;;5014941;28;20498;-65
2023/07/10 07:41:35;;;;;;;7.32;3.72;;;31.40;99.90;;;;;;5013554;28;21231;-65
2023/07/10 07:44:03;;;;;;;5.07;4.50;;;31.40;99.90;;;;;;5015151;28;20488;-65
2023/07/10 07:46:32;;;;;;;3.47;3.17;;;31.10;99.90;;;;;;5014212;28;20896;-65
2023/07/10 07:48:59;;;;;;;5.68;3.88;;;30.70;99.90;;;;;;5011057;28;20511;-64
2023/07/10 07:51:26;;;;;;;8.70;4.03;;;31.00;99.90;;;;;;5013572;28;20435;-67
2023/07/10 07:54:05;;;;;;;4.00;3.70;;;31.40;99.90;;;;;;5012963;28;20513;-66
2023/07/10 07:56:32;;;;;;;8.68;3.92;;;31.30;99.90;;;;;;5014363;28;20438;-66
2023/07/10 07:58:59;;;;;;;7.10;3.40;;;30.70;99.90;;;;;;5009362;28;20478;-66
2023/07/10 08:01:27;;;;;;;7.17;3.20;;;30.40;99.90;;;;;;5011494;28;20466;-66
2023/07/10 08:03:54;;;;;;;1113.00;994.85;;;30.60;99.90;;;;;;5012593;28;20914;-65
2023/07/10 08:06:21;;;;;;;990.63;881.17;;;30.70;99.90;;;;;;5015257;28;20439;-65
2023/07/10 08:08:47;;;;;;;1049.78;936.55;;;31.10;99.90;;;;;;5015984;28;21035;-67
2023/07/10 08:11:16;;;;;;;1012.22;902.15;;;31.50;99.90;;;;;;5013111;28;20560;-64
2023/07/10 08:13:43;;;;;;;991.63;883.25;;;31.80;99.90;;;;;;5015201;28;20433;-64
2023/07/10 08:16:10;;;;;;;1005.53;896.30;;;32.30;99.90;;;;;;5016289;28;20431;-65
2023/07/10 08:18:38;;;;;;;992.67;884.85;;;32.60;99.90;;;;;;5015316;28;20437;-64
2023/07/10 08:21:08;;;;;;;1047.15;936.00;;;32.40;99.90;;;;;;5017659;28;20431;-66
2023/07/10 08:23:35;;;;;;;1024.03;914.05;;;32.70;99.90;;;;;;5013548;28;20439;-64
2023/07/10 08:26:02;;;;;;;1046.85;934.58;;;32.50;99.90;;;;;;5011633;28;20433;-65
2023/07/10 08:28:30;;;;;;;1090.57;975.58;;;32.70;99.90;;;;;;5014477;28;20494;-64
2023/07/10 08:30:57;;;;;;;1123.00;999.90;;;33.30;99.90;;;;;;5014115;28;20545;-64
2023/07/10 08:33:24;;;;;;;1102.05;986.65;;;33.90;99.90;;;;;;5001035;28;20465;-64
2023/07/10 08:36:00;;;;;;;1067.35;954.97;;;34.00;99.90;;;;;;5017026;28;20439;-64
2023/07/10 08:38:27;;;;;;;1118.13;999.90;;;33.30;99.90;;;;;;5005881;28;20458;-64
2023/07/10 08:40:57;;;;;;;1049.28;937.92;;;32.30;99.90;;;;;;5006433;28;20519;-64
2023/07/10 08:43:38;;;;;;;1036.15;933.20;;;31.70;99.90;;;;;;5015337;28;20441;-64
2023/07/10 08:46:17;;;;;;;1126.75;992.00;;;31.30;98.80;;;;;;5016441;28;20443;-64
2023/07/10 08:49:00;;;;;;;1063.85;949.85;;;31.30;99.40;;;;;;5015235;28;20534;-64
2023/07/10 08:51:49;;;;;;;1054.23;942.83;;;32.10;99.90;;;;;;5014177;28;20439;-67
2023/07/10 08:54:18;;;;;;;1164.28;999.90;;;32.70;99.90;;;;;;5013000;28;20435;-65
2023/07/10 08:57:06;;;;;;;1056.95;944.92;;;32.90;98.10;;;;;;5016393;28;20458;-64
2023/07/10 08:59:55;;;;;;;1147.32;999.90;;;33.60;99.90;;;;;;5013862;28;20492;-66
2023/07/10 09:02:57;;;;;;;1297.17;999.90;;;33.80;99.90;;;;;;4997805;28;20473;-64
2023/07/10 09:05:29;;;;;;;737.75;673.22;;;34.20;99.90;;;;;;5013454;28;20438;-64
2023/07/10 09:08:09;;;;;;;1204.57;999.90;;;34.10;99.90;;;;;;5016589;28;20447;-65
2023/07/10 09:10:42;;;;;;;989.58;906.75;;;34.30;99.90;;;;;;5014817;28;20561;-63
2023/07/10 09:13:16;;;;;;;1273.60;999.90;;;34.30;99.90;;;;;;5017679;28;20433;-63
2023/07/10 09:15:55;;;;;;;1247.68;999.90;;;33.90;99.90;;;;;;5014435;28;20986;-63
2023/07/10 09:18:38;;;;;;;1004.78;915.25;;;33.40;99.90;;;;;;5018171;28;20439;-64
2023/07/10 09:21:17;;;;;;;1276.60;999.90;;;32.70;99.90;;;;;;4996298;28;20425;-64
2023/07/10 09:23:47;;;;;;;631.33;577.67;;;32.50;99.90;;;;;;5015355;28;21316;-65
2023/07/10 09:26:20;;;;;;;667.95;609.00;;;33.00;99.90;;;;;;4998295;28;20925;-65
2023/07/10 09:29:11;;;;;;;1076.07;986.30;;;33.60;99.90;;;;;;5009674;28;20440;-62
2023/07/10 09:31:59;;;;;;;1153.63;999.90;;;34.00;99.90;;;;;;5002709;28;20435;-63
2023/07/10 09:34:34;;;;;;;1142.80;999.90;;;33.90;99.90;;;;;;5014322;28;20441;-63
2023/07/10 09:37:09;;;;;;;1272.90;999.90;;;33.40;99.90;;;;;;5015228;28;20429;-64
2023/07/10 09:39:36;;;;;;;1273.70;999.90;;;33.00;99.90;;;;;;5015734;28;20430;-66
2023/07/10 09:42:04;;;;;;;1278.40;999.90;;;33.20;99.90;;;;;;5011064;28;20521;-65
2023/07/10 09:44:37;;;;;;;1310.20;999.90;;;33.10;99.90;;;;;;5011983;28;20472;-66
2023/07/10 09:47:15;;;;;;;1250.23;999.90;;;32.60;99.80;;;;;;5018501;28;20427;-66
2023/07/10 09:49:47;;;;;;;1195.10;999.90;;;32.20;98.60;;;;;;5014893;28;20447;-64
2023/07/10 09:52:26;;;;;;;1203.80;999.90;;;32.20;98.90;;;;;;5014206;28;20454;-64
2023/07/10 09:55:06;;;;;;;1120.75;999.90;;;32.90;99.90;;;;;;5010893;28;20556;-63
2023/07/10 09:58:04;;;;;;;1245.25;999.90;;;33.40;99.90;;;;;;5014208;28;20436;-63
2023/07/10 10:00:43;;;;;;;1330.28;999.90;;;33.90;99.90;;;;;;5012709;28;20433;-63
2023/07/10 10:03:19;;;;;;;1267.22;999.90;;;34.30;99.90;;;;;;5014981;28;20467;-64
2023/07/10 10:05:55;;;;;;;1338.97;999.90;;;34.00;99.90;;;;;;5017056;28;20435;-63
2023/07/10 10:08:28;;;;;;;1301.30;999.90;;;33.00;99.70;;;;;;5015226;28;21006;-64
2023/07/10 10:11:07;;;;;;;1333.70;999.90;;;33.00;99.30;;;;;;5017150;28;20525;-66
2023/07/10 10:13:57;;;;;;;310.65;284.52;;;33.00;99.30;;;;;;5015902;28;20508;-63
2023/07/10 10:16:47;;;;;;;490.77;445.43;;;32.40;98.10;;;;;;4998359;28;20461;-63
2023/07/10 10:19:40;;;;;;;715.28;653.53;;;31.50;95.70;;;;;;5016180;28;20909;-64
2023/07/10 10:22:12;;;;;;;1175.53;999.90;;;31.30;95.80;;;;;;5002762;28;20439;-64
2023/07/10 10:24:40;;;;;;;636.45;575.92;;;31.70;97.30;;;;;;5016124;28;20450;-63
2023/07/10 10:27:22;;;;;;;480.83;437.02;;;32.00;97.50;;;;;;5017196;28;20437;-66
2023/07/10 10:29:53;;;;;;;1146.75;999.90;;;31.70;96.80;;;;;;5017158;28;20439;-63
2023/07/10 10:32:23;;;;;;;1175.50;999.90;;;31.40;95.80;;;;;;5014486;28;20446;-63
2023/07/10 10:35:17;;;;;;;81.78;75.03;;;30.80;94.70;;;;;;5013852;28;20431;-63
2023/07/10 10:38:12;;;;;;;4.67;4.47;;;30.50;93.60;;;;;;5017365;28;20445;-65
2023/07/10 10:40:57;;;;;;;38.08;34.63;;;30.10;93.00;;;;;;5013323;28;20526;-64
2023/07/10 10:43:33;;;;;;;3.55;3.25;;;30.20;93.60;;;;;;5011932;28;20505;-63
2023/07/10 10:46:25;;;;;;;51.53;46.45;;;30.90;95.60;;;;;;5014843;28;20524;-66
2023/07/10 10:49:00;;;;;;;1.13;0.95;;;31.60;97.30;;;;;;4983328;28;20422;-62
2023/07/10 10:51:43;;;;;;;0.57;0.57;;;31.80;96.60;;;;;;5016613;28;20434;-65
2023/07/10 10:54:35;;;;;;;1.08;1.08;;;31.50;96.10;;;;;;5011102;28;20451;-62
2023/07/10 10:57:13;;;;;;;0.70;0.70;;;31.30;95.60;;;;;;5013139;28;20474;-63
2023/07/10 10:59:51;;;;;;;3.00;0.80;;;31.30;95.60;;;;;;5014901;28;20431;-66
2023/07/10 11:02:36;;;;;;;0.68;0.68;;;31.70;97.30;;;;;;5010392;28;20431;-65
2023/07/10 11:05:13;;;;;;;0.90;0.90;;;32.70;99.20;;;;;;5015729;28;20544;-64
2023/07/10 11:07:42;;;;;;;1301.78;999.90;;;33.00;99.50;;;;;;5015475;28;20439;-63
2023/07/10 11:10:17;;;;;;;152.50;138.05;;;33.30;99.90;;;;;;4997031;28;21020;-64
2023/07/10 11:12:44;;;;;;;1.30;1.20;;;33.90;99.90;;;;;;5011756;28;20449;-66
2023/07/10 11:15:24;;;;;;;54.65;49.67;;;33.50;99.50;;;;;;5012959;28;21068;-64
2023/07/10 11:17:53;;;;;;;439.63;400.20;;;33.30;98.90;;;;;;5016310;28;20443;-63
2023/07/10 11:20:24;;;;;;;8.52;7.82;;;33.40;99.30;;;;;;5015873;28;20443;-63
2023/07/10 11:23:02;;;;;;;1329.82;999.90;;;33.80;99.90;;;;;;5013818;28;20465;-63
2023/07/10 11:25:38;;;;;;;1213.65;999.90;;;34.50;99.90;;;;;;5014048;28;20446;-63
2023/07/10 11:28:25;;;;;;;1283.35;999.90;;;35.00;99.90;;;;;;5010595;28;21600;-63
2023/07/10 11:31:19;;;;;;;606.87;550.97;;;35.00;99.90;;;;;;5015146;28;20555;-62
2023/07/10 11:33:52;;;;;;;532.45;485.30;;;33.90;99.60;;;;;;5011538;28;21171;-63
2023/07/10 11:36:25;;;;;;;1138.50;997.20;;;33.00;97.30;;;;;;5016105;28;20431;-63
2023/07/10 11:38:56;;;;;;;1143.30;999.90;;;32.60;96.70;;;;;;5015887;28;20457;-63
2023/07/10 11:41:32;;;;;;;1181.10;999.90;;;32.90;97.00;;;;;;5001659;28;21064;-63
2023/07/10 11:44:14;;;;;;;1290.73;999.90;;;33.30;98.10;;;;;;5013996;28;20427;-63
2023/07/10 11:46:59;;;;;;;1254.20;999.90;;;33.90;99.50;;;;;;5013459;28;20911;-63
2023/07/10 11:49:27;;;;;;;1244.10;999.90;;;34.00;99.70;;;;;;5008641;28;20446;-63
2023/07/10 11:52:13;;;;;;;127.25;115.50;;;33.70;99.20;;;;;;5007012;28;20469;-64
2023/07/10 11:54:47;;;;;;;1286.32;999.90;;;33.60;98.70;;;;;;5005054;28;20520;-64
2023/07/10 11:57:20;;;;;;;1284.35;999.90;;;33.40;98.00;;;;;;5014025;28;20541;-64
2023/07/10 11:59:55;;;;;;;1296.63;999.90;;;33.20;97.30;;;;;;5014239;28;20991;-66
2023/07/10 12:02:35;;;;;;;1003.75;915.05;;;32.90;97.20;;;;;;5011134;28;20535;-63
2023/07/10 12:05:18;;;;;;;304.35;276.90;;;32.40;95.60;;;;;;5010020;28;20524;-64
2023/07/10 12:07:52;;;;;;;336.23;306.20;;;32.10;94.70;;;;;;5012746;28;21322;-64
2023/07/10 12:10:19;;;;;;;134.80;123.20;;;32.50;95.60;;;;;;5012866;28;20470;-67
2023/07/10 12:12:46;;;;;;;416.50;378.60;;;32.10;95.10;;;;;;5014395;28;20802;-65
2023/07/10 12:15:13;;;;;;;891.40;815.67;;;31.90;94.00;;;;;;5017398;28;21015;-64
2023/07/10 12:17:41;;;;;;;344.75;315.50;;;32.30;95.60;;;;;;5010195;28;20472;-64
2023/07/10 12:20:30;;;;;;;2.30;2.20;;;32.90;96.90;;;;;;5015075;28;20441;-63
2023/07/10 12:23:09;;;;;;;0.50;0.50;;;33.90;99.10;;;;;;5015884;28;20432;-64
2023/07/10 12:25:36;;;;;;;0.82;0.82;;;34.70;99.90;;;;;;5008078;28;20435;-66
2023/07/10 12:28:13;;;;;;;0.90;0.90;;;35.10;99.90;;;;;;5011823;28;20440;-65
2023/07/10 12:30:56;;;;;;;2.00;1.80;;;35.10;99.90;;;;;;5003431;28;20440;-63
2023/07/10 12:33:33;;;;;;;0.90;0.90;;;34.80;99.90;;;;;;5007603;28;20482;-66
2023/07/10 12:36:03;;;;;;;2.38;2.22;;;35.00;99.90;;;;;;5015173;28;20430;-62
2023/07/10 12:38:32;;;;;;;412.90;372.23;;;35.10;99.90;;;;;;5018223;28;20534;-64
2023/07/10 12:40:59;;;;;;;196.03;178.63;;;34.70;99.90;;;;;;5007163;28;20492;-63
2023/07/10 12:43:27;;;;;;;927.25;841.58;;;34.60;99.90;;;;;;5026083;28;20451;-65
2023/07/10 12:46:16;;;;;;;1060.63;965.30;;;34.60;99.60;;;;;;5001613;28;20432;-66
2023/07/10 12:48:44;;;;;;;1167.68;999.90;;;34.50;99.60;;;;;;5022931;28;20469;-63
2023/07/10 12:51:31;;;;;;;1036.47;926.28;;;34.30;99.30;;;;;;5022605;28;20438;-63
2023/07/10 12:54:00;;;;;;;1020.10;909.50;;;33.60;97.50;;;;;;5021680;28;20442;-64